Latest Weather Observations for Leigh Creek

IDS60801

Issued at 7:31 pm CDT Thursday 19 October 2017 (issued every 30 minutes, with the page automatically refreshed every 10 minutes)

About weather observations | Map of weather stations | Latest weather observations for SA | Other Formats
Station Details ID: 017110 Name: LEIGH CREEK AIRPORT Lat: -30.60 Lon: 138.42 Height: 258.8 m
Data from the previous 72 hours. | See also: Recent months at Leigh Creek
Date/Time
CDT
Temp
°C
App
Temp
°C
Dew
Point
°C
Rel
Hum
%
Delta-T
°C
Wind Press
QNH
hPa
Press
MSL
hPa
Rain since
9am
mm
Dir  Spd
km/h
Gust
km/h
Spd
kts
Gust
kts
19/07:30pm 23.9 17.0 10.2 42 7.6 SSW 37 46 20 25 1020.9 1020.1 0.0
19/07:00pm 24.6 21.2 10.5 41 7.9 S 19 32 10 17 1020.5 1019.8 0.0
19/06:30pm 24.4 18.7 11.7 45 7.3 S 33 46 18 25 1020.2 1019.5 0.0
19/06:00pm 25.0 19.8 11.6 43 7.7 S 30 50 16 27 1019.8 1019.1 0.0
19/05:30pm 26.0 18.2 11.0 39 8.5 S 43 61 23 33 1019.2 1018.4 0.0
19/05:00pm 27.0 19.9 13.4 43 8.1 S 43 65 23 35 1018.6 1017.8 0.0
19/04:38pm 27.3 19.5 11.7 37 9.1 SSW 44 63 24 34 1018.4 1017.6 0.0
19/04:30pm 28.5 20.1 12.4 37 9.5 SSW 48 63 26 34 1018.3 1017.5 0.0
19/04:00pm 29.8 22.3 12.7 35 10.2 SSW 44 63 24 34 1018.1 1017.3 0.0
19/03:32pm 30.7 24.6 13.0 33 10.6 SSW 37 56 20 30 1018.0 1017.2 0.0
19/03:30pm 30.7 24.6 13.0 33 10.6 SSW 37 48 20 26 1018.1 1017.3 0.0
19/03:00pm 31.1 25.7 13.8 34 10.5 SSW 35 52 19 28 1018.3 1017.5 0.0
19/02:36pm 29.9 25.3 13.6 36 9.9 S 30 48 16 26 1018.4 1017.6 0.0
19/02:30pm 30.2 25.0 13.5 36 10.1 S 33 50 18 27 1018.5 1017.7 0.0
19/02:00pm 30.3 24.5 14.0 37 9.9 SSW 37 48 20 26 1018.7 1017.9 0.0
19/01:30pm 29.6 23.3 13.4 37 9.7 SSW 39 57 21 31 1018.7 1017.9 0.0
19/01:01pm 29.4 23.3 14.0 39 9.4 S 39 57 21 31 1018.8 1018.0 0.0
19/01:00pm 29.5 23.0 14.1 39 9.4 S 41 57 22 31 1018.9 1018.1 0.0
19/12:48pm 29.8 23.9 13.5 36 9.8 S 37 56 20 30 1018.8 1018.0 0.0
19/12:30pm 28.9 22.0 13.9 39 9.1 SSW 43 54 23 29 1018.8 1018.0 0.0
19/12:12pm 28.0 20.5 13.9 42 8.5 SSW 46 65 25 35 1018.9 1018.1 0.0
19/12:00pm 29.0 21.5 12.8 36 9.6 SSW 44 57 24 31 1018.9 1018.1 0.0
19/11:51am 29.1 24.7 12.9 37 9.7 SW 28 48 15 26 1019.1 1018.3 0.0
19/11:30am 30.5 28.2 12.9 34 10.5 WSW 17 35 9 19 1018.8 1018.0 0.0
19/11:00am 31.2 30.7 14.8 37 10.1 W 11 17 6 9 1018.9 1018.1 0.0
19/10:30am 30.6 30.6 15.1 39 9.6 NNE 9 13 5 7 1019.2 1018.4 0.0
19/10:00am 29.6 29.9 15.0 41 9.0 W 7 19 4 10 1019.1 1018.3 0.0
19/09:30am 28.8 29.1 15.0 43 8.5 NW 7 17 4 9 1019.0 1018.2 0.0
19/09:00am 27.6 27.9 14.6 45 7.9 SSW 6 13 3 7 1018.7 1017.9 0.0
19/08:30am 27.3 27.5 14.3 45 7.9 SSW 6 13 3 7 1018.6 1017.8 0.0
19/08:00am 26.3 25.9 14.1 47 7.3 S 9 19 5 10 1018.4 1017.6 0.0
19/07:30am 24.4 24.3 13.9 52 6.2 S 7 15 4 8 1018.0 1017.2 0.0
19/07:00am 22.0 22.3 13.4 58 5.0 ENE 4 9 2 5 1017.4 1016.6 0.0
19/06:30am 22.1 23.1 13.2 57 5.2 CALM 0 2 0 1 1016.8 1016.0 0.0
19/06:00am 22.0 22.8 12.5 54 5.4 CALM 0 2 0 1 1016.4 1015.7 0.0
19/05:30am 22.9 22.4 12.5 52 6.0 ENE 7 13 4 7 1016.1 1015.3 0.0
19/05:00am 23.7 23.9 13.0 51 6.2 ENE 4 9 2 5 1015.7 1014.9 0.0
19/04:30am 23.9 22.3 12.8 49 6.5 NE 13 19 7 10 1015.1 1014.3 0.0
19/04:00am 23.0 22.0 12.3 51 6.2 NE 9 15 5 8 1015.4 1014.6 0.0
19/03:30am 24.9 22.5 12.8 47 7.1 NE 17 22 9 12 1015.2 1014.4 0.0
19/03:00am 25.2 22.3 12.8 46 7.3 NE 20 26 11 14 1015.2 1014.4 0.0
19/02:30am 24.1 22.4 12.4 48 6.8 ENE 13 15 7 8 1015.5 1014.7 0.0
19/02:00am 24.8 22.4 12.7 47 7.1 ENE 17 20 9 11 1015.6 1014.8 0.0
19/01:30am 25.2 23.2 12.8 46 7.3 NE 15 19 8 10 1015.8 1015.0 0.0
19/01:00am 25.4 23.4 12.6 45 7.5 NE 15 17 8 9 1016.1 1015.3 0.0
19/12:30am 25.5 23.9 12.7 45 7.5 NE 13 15 7 8 1016.2 1015.5 0.0
19/12:00am 26.2 23.8 12.6 43 8.0 NE 17 20 9 11 1016.4 1015.7 0.0
 
Date/Time
CDT
Temp
°C
App
Temp
°C
Dew
Point
°C
Rel
Hum
%
Delta-T
°C
Wind Press
QNH
hPa
Press
MSL
hPa
Rain since
9am
mm
Dir  Spd
km/h
Gust
km/h
Spd
kts
Gust
kts
18/11:30pm 26.3 24.3 12.7 43 8.0 NE 15 19 8 10 1016.6 1015.8 0.0
18/11:00pm 26.8 25.1 12.5 41 8.4 NNE 13 17 7 9 1016.7 1015.9 0.0
18/10:30pm 27.2 25.5 12.4 40 8.7 NNE 13 17 7 9 1016.6 1015.8 0.0
18/10:00pm 27.7 25.5 12.1 38 9.1 NNE 15 19 8 10 1016.3 1015.6 0.0
18/09:30pm 28.4 25.5 12.3 37 9.5 N 19 26 10 14 1015.9 1015.1 0.0
18/09:00pm 28.7 26.2 12.2 36 9.7 N 17 24 9 13 1015.5 1014.7 0.0
18/08:30pm 28.6 25.9 11.6 34 9.9 N 17 20 9 11 1014.9 1014.1 0.0
18/08:00pm 29.0 25.8 11.1 33 10.4 N 19 26 10 14 1014.4 1013.6 0.0
18/07:30pm 29.8 26.4 11.3 32 10.8 N 20 26 11 14 1014.0 1013.2 0.0
18/07:00pm 30.8 27.2 10.7 29 11.7 N 20 28 11 15 1013.6 1012.8 0.0
18/06:30pm 31.5 28.0 10.8 28 12.1 N 20 30 11 16 1013.2 1012.4 0.0
18/06:00pm 32.0 28.4 10.7 27 12.4 N 20 32 11 17 1013.0 1012.2 0.0
18/05:30pm 32.5 29.1 10.5 26 12.8 N 19 28 10 15 1012.8 1011.9 0.0
18/05:00pm 32.7 28.4 10.7 26 12.9 N 24 35 13 19 1012.7 1011.8 0.0
18/04:30pm 32.7 29.0 10.1 25 13.1 N 20 30 11 16 1012.7 1011.8 0.0
18/04:00pm 33.1 29.5 10.4 25 13.2 N 20 44 11 24 1012.9 1012.1 0.0
18/03:30pm 32.7 29.3 10.7 26 12.9 NNE 19 35 10 19 1013.1 1012.3 0.0
18/03:00pm 32.6 29.0 10.0 25 13.1 N 19 30 10 16 1013.4 1012.6 0.0
18/02:30pm 32.5 28.2 9.3 24 13.3 N 22 35 12 19 1013.9 1013.1 0.0
18/02:00pm 31.9 27.2 9.4 25 12.8 NNE 24 37 13 20 1014.2 1013.4 0.0
18/01:30pm 31.0 27.4 10.4 28 11.9 NNE 20 39 11 21 1014.7 1013.9 0.0
18/01:00pm 30.8 26.9 10.7 29 11.7 N 22 41 12 22 1015.0 1014.2 0.0
18/12:30pm 30.5 26.8 11.5 31 11.1 NNE 22 37 12 20 1015.4 1014.6 0.0
18/12:00pm 30.0 25.3 12.0 33 10.6 N 28 39 15 21 1015.7 1014.9 0.0
18/11:30am 29.5 25.2 12.0 34 10.3 NNE 26 39 14 21 1016.0 1015.2 0.0
18/11:00am 28.2 24.2 11.7 36 9.6 NNE 24 35 13 19 1016.3 1015.6 0.0
18/10:30am 27.7 23.0 12.1 38 9.1 N 28 37 15 20 1016.8 1016.0 0.0
18/10:00am 27.1 22.4 12.0 39 8.8 NNE 28 35 15 19 1017.1 1016.3 0.0
18/09:30am 26.4 22.5 12.1 41 8.3 NNE 24 35 13 19 1017.2 1016.4 0.0
18/09:00am 25.7 21.2 12.5 44 7.7 NNE 28 41 15 22 1017.2 1016.4 0.0
18/08:30am 25.2 21.4 12.4 45 7.4 NNE 24 32 13 17 1017.2 1016.4 0.0
18/08:00am 24.5 21.4 12.1 46 7.2 NE 20 26 11 14 1017.1 1016.3 0.0
18/07:30am 22.9 22.2 11.3 48 6.5 NE 6 11 3 6 1017.1 1016.3 0.0
18/07:00am 21.8 20.6 11.5 52 5.8 NNE 9 11 5 6 1016.8 1016.0 0.0
18/06:30am 21.6 19.5 11.3 52 5.8 NNE 13 15 7 8 1016.4 1015.7 0.0
18/06:00am 22.5 20.1 11.3 49 6.3 NNE 15 20 8 11 1016.1 1015.3 0.0
18/05:30am 23.4 20.2 11.1 46 6.9 NNE 19 26 10 14 1015.7 1014.9 0.0
18/05:00am 23.7 20.1 10.7 44 7.3 NNE 20 30 11 16 1015.4 1014.6 0.0
18/04:30am 23.7 20.3 10.4 43 7.4 NE 19 24 10 13 1015.2 1014.4 0.0
18/04:00am 23.3 20.2 10.4 44 7.2 NE 17 20 9 11 1015.0 1014.2 0.0
18/03:30am 23.7 20.6 10.4 43 7.4 NE 17 20 9 11 1015.0 1014.2 0.0
18/03:00am 23.6 20.5 10.3 43 7.4 NE 17 20 9 11 1015.1 1014.3 0.0
18/02:30am 23.8 21.0 10.1 42 7.6 NE 15 19 8 10 1015.3 1014.5 0.0
18/02:00am 24.4 20.8 9.9 40 8.1 NE 19 22 10 12 1015.5 1014.7 0.0
18/01:30am 24.7 20.9 9.8 39 8.3 ENE 20 24 11 13 1015.8 1015.0 0.0
18/01:00am 24.6 21.4 10.1 40 8.1 ENE 17 20 9 11 1015.9 1015.1 0.0
18/12:30am 24.3 21.6 10.2 41 7.9 ENE 15 19 8 10 1016.1 1015.3 0.0
18/12:00am 24.7 21.6 10.2 40 8.1 ENE 17 20 9 11 1016.1 1015.3 0.0
 
Date/Time
CDT
Temp
°C
App
Temp
°C
Dew
Point
°C
Rel
Hum
%
Delta-T
°C
Wind Press
QNH
hPa
Press
MSL
hPa
Rain since
9am
mm
Dir  Spd
km/h
Gust
km/h
Spd
kts
Gust
kts
17/11:30pm 25.0 21.8 10.1 39 8.3 ENE 17 20 9 11 1016.2 1015.5 0.0
17/11:00pm 25.4 22.2 10.1 38 8.6 NE 17 19 9 10 1016.2 1015.5 0.0
17/10:30pm 25.5 22.6 9.7 37 8.8 NE 15 19 8 10 1016.0 1015.2 0.0
17/10:00pm 25.8 23.2 9.2 35 9.2 NE 13 17 7 9 1015.8 1015.0 0.0
17/09:30pm 26.9 23.5 9.3 33 9.8 NE 17 19 9 10 1015.5 1014.7 0.0
17/09:00pm 27.7 23.7 9.0 31 10.4 NE 20 28 11 15 1015.2 1014.4 0.0
17/08:30pm 28.5 24.7 9.2 30 10.8 ENE 19 26 10 14 1014.9 1014.1 0.0
17/08:00pm 28.3 24.5 9.1 30 10.7 ENE 19 24 10 13 1014.6 1013.8 0.0
17/07:30pm 29.2 25.5 9.3 29 11.2 ENE 19 26 10 14 1014.4 1013.6 0.0
17/07:00pm 29.6 24.9 9.2 28 11.5 NE 24 30 13 16 1014.1 1013.3 0.0
17/06:30pm 29.6 25.8 9.2 28 11.5 ENE 19 28 10 15 1013.8 1013.0 0.0
17/06:00pm 29.9 25.2 9.4 28 11.6 NE 24 32 13 17 1013.6 1012.8 0.0
17/05:30pm 30.7 26.3 9.0 26 12.2 NE 22 33 12 18 1013.4 1012.6 0.0
17/05:00pm 30.8 26.1 9.1 26 12.3 NE 24 33 13 18 1013.3 1012.5 0.0
17/04:30pm 30.6 26.0 9.5 27 12.0 ENE 24 33 13 18 1013.2 1012.4 0.0
17/04:11pm 31.2 26.2 9.4 26 12.4 NE 26 48 14 26 1013.1 1012.3 0.0
17/04:00pm 31.9 27.2 9.4 25 12.8 NNE 24 39 13 21 1013.3 1012.5 0.0
17/03:30pm 30.4 24.9 9.3 27 11.9 NE 28 48 15 26 1013.6 1012.8 0.0
17/03:22pm 31.2 25.8 9.4 26 12.4 NE 28 50 15 27 1013.6 1012.8 0.0
17/03:00pm 32.1 26.9 10.2 26 12.7 NE 28 37 15 20 1013.8 1013.0 0.0
17/02:30pm 31.2 25.8 9.4 26 12.4 NNE 28 41 15 22 1014.3 1013.5 0.0
17/02:00pm 31.1 26.3 10.4 28 12.0 NNE 26 39 14 21 1014.6 1013.8 0.0
17/01:30pm 30.9 25.6 9.7 27 12.1 NNE 28 43 15 23 1015.1 1014.3 0.0
17/01:11pm 29.8 24.5 9.9 29 11.3 NE 28 46 15 25 1015.4 1014.6 0.0
17/01:00pm 30.1 24.5 10.1 29 11.5 NE 30 43 16 23 1015.4 1014.6 0.0
17/12:30pm 29.1 23.5 10.3 31 10.7 NNE 30 43 16 23 1015.8 1015.0 0.0
17/12:00pm 28.8 22.8 10.0 31 10.7 NNE 32 50 17 27 1016.3 1015.6 0.0
17/11:47am 27.8 22.6 10.1 33 10.0 NNE 28 46 15 25 1016.6 1015.8 0.0
17/11:30am 27.4 22.2 10.2 34 9.7 NNE 28 41 15 22 1016.9 1016.1 0.0
17/11:14am 27.8 22.7 10.5 34 9.9 NE 28 46 15 25 1017.1 1016.3 0.0
17/11:00am 27.2 21.7 10.4 35 9.5 NNE 30 43 16 23 1017.5 1016.7 0.0
17/10:30am 26.4 20.9 10.5 37 9.0 NNE 30 39 16 21 1017.7 1016.9 0.0
17/10:00am 25.5 20.0 10.5 39 8.5 NNE 30 43 16 23 1017.9 1017.1 0.0
17/09:30am 24.9 18.9 10.8 41 8.0 NNE 33 44 18 24 1018.2 1017.4 0.0
17/09:00am 24.5 18.3 10.0 40 8.1 NNE 33 43 18 23 1017.9 1017.1 0.0
17/08:30am 23.8 17.5 9.0 39 8.0 NNE 32 43 17 23 1017.8 1017.0 0.0
17/08:00am 23.1 18.7 9.1 41 7.6 NNE 22 28 12 15 1017.7 1016.9 0.0
17/07:30am 21.4 19.1 9.0 45 6.7 NE 11 17 6 9 1017.7 1016.9 0.0
17/07:00am 19.7 16.9 8.4 48 5.9 NE 13 17 7 9 1017.5 1016.7 0.0
17/06:30am 18.2 15.2 7.6 50 5.4 NNE 13 15 7 8 1017.3 1016.5 0.0
17/06:00am 17.0 14.1 6.5 50 5.2 NNE 11 15 6 8 1017.1 1016.3 0.0
17/05:30am 18.1 14.9 6.9 48 5.7 NE 13 13 7 7 1016.7 1015.9 0.0
17/05:00am 18.5 16.0 6.4 45 6.1 NE 9 11 5 6 1016.4 1015.7 0.0
17/04:30am 20.8 16.8 6.7 40 7.2 NE 17 20 9 11 1016.1 1015.3 0.0
17/04:00am 19.5 16.2 6.6 43 6.6 NE 13 17 7 9 1015.9 1015.1 0.0
17/03:30am 20.4 17.1 6.4 40 7.1 NE 13 17 7 9 1016.0 1015.2 0.0
17/03:00am 21.9 17.8 6.2 36 8.0 NE 17 20 9 11 1016.1 1015.3 0.0
17/02:30am 22.1 17.6 6.3 36 8.1 ENE 19 24 10 13 1016.4 1015.7 0.0
17/02:00am 20.3 16.3 5.1 37 7.5 E 15 17 8 9 1016.7 1015.9 0.0
17/01:30am 22.0 17.3 5.0 33 8.5 NE 19 24 10 13 1017.1 1016.3 0.0
17/01:00am 18.8 14.8 4.9 40 6.8 ESE 15 20 8 11 1017.5 1016.7 0.0
17/12:30am 19.6 15.6 4.9 38 7.2 E 15 15 8 8 1017.4 1016.6 0.0
17/12:00am 20.6 16.6 5.0 36 7.7 ENE 15 19 8 10 1017.6 1016.8 0.0
 
Date/Time
CDT
Temp
°C
App
Temp
°C
Dew
Point
°C
Rel
Hum
%
Delta-T
°C
Wind Press
QNH
hPa
Press
MSL
hPa
Rain since
9am
mm
Dir  Spd
km/h
Gust
km/h
Spd
kts
Gust
kts
16/11:30pm 20.7 16.7 5.1 36 7.7 E 15 19 8 10 1017.6 1016.8 0.0
16/11:00pm 20.5 17.0 5.3 37 7.6 E 13 15 7 8 1017.7 1016.9 0.0
16/10:30pm 21.4 17.8 4.9 34 8.2 E 13 15 7 8 1017.7 1016.9 0.0
16/10:00pm 22.6 19.0 5.1 32 8.8 E 13 13 7 7 1017.6 1016.8 0.0
16/09:30pm 23.9 19.9 4.8 29 9.6 ESE 15 17 8 9 1017.3 1016.5 0.0
16/09:00pm 24.8 20.4 4.5 27 10.2 E 17 19 9 10 1016.9 1016.1 0.0
16/08:30pm 25.7 21.2 4.2 25 10.9 E 17 19 9 10 1016.4 1015.7 0.0
16/08:00pm 27.0 22.2 4.7 24 11.5 E 19 22 10 12 1016.1 1015.3 0.0

Other Formats:

Comma delimited format used in spreadsheet applications
http://www.bom.gov.au/fwo/IDS60801/IDS60801.94674.axf

JavaScript Object Notation format (JSON) in row-major order
http://www.bom.gov.au/fwo/IDS60801/IDS60801.94674.json